Lyminge, United Kingdom
Current Conditions -  °F | °C
As of 12:20 PM on Saturday 25 Oct 2014 (Local Time) from EGMD Reporting Station
Broken Clouds Broken Clouds  
Wind Chill: 14°   Ceiling: 4900
Heat Index: 14°   Visibility: 6mi
Dew Point:   Wind: 8mph
Humidity: 72%   Direction: 260°W
Pressure: 30.12"   Gusts: NA
Location:  51.13°N, 1.09°E
Report Text: EGMD 251120Z 26007KT 9999 BKN049 14/09 Q1020
Loading
Personal Weather Stations






























Interactive Weather Map
Tropical Storm Tracking
New forecast layout! Learn more

10-Day Weather Forecast

Advertisements
Track Severe Weather on mobile